sensor_id;sensor_type;location;lat;lon;timestamp;P1;durP1;ratioP1;P2;durP2;ratioP2
14665;SDS011;7420;53.574;10.040;2023-04-27T00:01:37;12.30;;;3.15;;
14665;SDS011;7420;53.574;10.040;2023-04-27T00:04:02;5.07;;;3.00;;
14665;SDS011;7420;53.574;10.040;2023-04-27T00:06:28;6.53;;;3.40;;
14665;SDS011;7420;53.574;10.040;2023-04-27T00:08:54;5.03;;;3.45;;
14665;SDS011;7420;53.574;10.040;2023-04-27T00:11:20;4.25;;;3.00;;
14665;SDS011;7420;53.574;10.040;2023-04-27T00:13:45;8.38;;;3.20;;
14665;SDS011;7420;53.574;10.040;2023-04-27T00:16:11;6.00;;;3.35;;
14665;SDS011;7420;53.574;10.040;2023-04-27T00:18:36;7.45;;;3.45;;
14665;SDS011;7420;53.574;10.040;2023-04-27T00:21:02;6.80;;;3.22;;
14665;SDS011;7420;53.574;10.040;2023-04-27T00:23:27;7.72;;;3.50;;
14665;SDS011;7420;53.574;10.040;2023-04-27T00:25:53;7.60;;;4.35;;
14665;SDS011;7420;53.574;10.040;2023-04-27T00:28:18;10.57;;;3.17;;
14665;SDS011;7420;53.574;10.040;2023-04-27T00:30:46;6.57;;;3.30;;
14665;SDS011;7420;53.574;10.040;2023-04-27T00:33:12;6.82;;;3.38;;
14665;SDS011;7420;53.574;10.040;2023-04-27T00:35:38;5.13;;;3.63;;
14665;SDS011;7420;53.574;10.040;2023-04-27T00:38:03;6.28;;;3.38;;
14665;SDS011;7420;53.574;10.040;2023-04-27T00:40:28;6.47;;;3.85;;
14665;SDS011;7420;53.574;10.040;2023-04-27T00:42:54;5.10;;;3.20;;
14665;SDS011;7420;53.574;10.040;2023-04-27T00:45:19;6.82;;;3.50;;
14665;SDS011;7420;53.574;10.040;2023-04-27T00:47:45;9.43;;;3.95;;
14665;SDS011;7420;53.574;10.040;2023-04-27T00:50:10;10.50;;;3.80;;
14665;SDS011;7420;53.574;10.040;2023-04-27T00:52:36;8.02;;;4.85;;
14665;SDS011;7420;53.574;10.040;2023-04-27T00:55:03;7.50;;;3.35;;
14665;SDS011;7420;53.574;10.040;2023-04-27T00:57:29;8.40;;;4.45;;
14665;SDS011;7420;53.574;10.040;2023-04-27T00:59:54;7.47;;;3.78;;
14665;SDS011;7420;53.574;10.040;2023-04-27T01:02:20;8.55;;;3.65;;
14665;SDS011;7420;53.574;10.040;2023-04-27T01:04:45;4.85;;;3.47;;
14665;SDS011;7420;53.574;10.040;2023-04-27T01:07:14;9.85;;;4.15;;
14665;SDS011;7420;53.574;10.040;2023-04-27T01:09:40;8.18;;;3.78;;
14665;SDS011;7420;53.574;10.040;2023-04-27T01:12:06;5.05;;;3.53;;
14665;SDS011;7420;53.574;10.040;2023-04-27T01:14:31;8.40;;;5.40;;
14665;SDS011;7420;53.574;10.040;2023-04-27T01:16:56;6.05;;;3.83;;
14665;SDS011;7420;53.574;10.040;2023-04-27T01:19:22;9.45;;;4.13;;
14665;SDS011;7420;53.574;10.040;2023-04-27T01:21:47;7.13;;;3.65;;
14665;SDS011;7420;53.574;10.040;2023-04-27T01:24:12;7.00;;;4.45;;
14665;SDS011;7420;53.574;10.040;2023-04-27T01:26:38;8.88;;;3.85;;
14665;SDS011;7420;53.574;10.040;2023-04-27T01:29:03;7.82;;;3.90;;
14665;SDS011;7420;53.574;10.040;2023-04-27T01:31:29;9.13;;;4.18;;
14665;SDS011;7420;53.574;10.040;2023-04-27T01:33:54;8.70;;;3.85;;
14665;SDS011;7420;53.574;10.040;2023-04-27T01:36:19;8.02;;;4.55;;
14665;SDS011;7420;53.574;10.040;2023-04-27T01:38:45;7.35;;;4.13;;
14665;SDS011;7420;53.574;10.040;2023-04-27T01:41:10;8.27;;;4.47;;
14665;SDS011;7420;53.574;10.040;2023-04-27T01:43:35;6.78;;;4.15;;
14665;SDS011;7420;53.574;10.040;2023-04-27T01:46:11;7.90;;;4.30;;
14665;SDS011;7420;53.574;10.040;2023-04-27T01:48:38;6.13;;;4.15;;
14665;SDS011;7420;53.574;10.040;2023-04-27T01:51:04;9.70;;;4.43;;
14665;SDS011;7420;53.574;10.040;2023-04-27T01:53:30;5.78;;;3.55;;
14665;SDS011;7420;53.574;10.040;2023-04-27T01:55:55;9.18;;;3.85;;
14665;SDS011;7420;53.574;10.040;2023-04-27T01:58:21;6.57;;;3.60;;
14665;SDS011;7420;53.574;10.040;2023-04-27T02:00:46;7.97;;;3.80;;
14665;SDS011;7420;53.574;10.040;2023-04-27T02:03:12;7.22;;;4.25;;
14665;SDS011;7420;53.574;10.040;2023-04-27T02:05:37;7.18;;;3.88;;
14665;SDS011;7420;53.574;10.040;2023-04-27T02:08:03;9.60;;;5.65;;
14665;SDS011;7420;53.574;10.040;2023-04-27T02:10:29;5.75;;;3.80;;
14665;SDS011;7420;53.574;10.040;2023-04-27T02:12:54;7.80;;;4.20;;
14665;SDS011;7420;53.574;10.040;2023-04-27T02:15:21;7.63;;;3.80;;
14665;SDS011;7420;53.574;10.040;2023-04-27T02:17:46;10.43;;;4.00;;
14665;SDS011;7420;53.574;10.040;2023-04-27T02:20:11;8.27;;;4.03;;
14665;SDS011;7420;53.574;10.040;2023-04-27T02:22:40;6.65;;;3.80;;
14665;SDS011;7420;53.574;10.040;2023-04-27T02:25:07;5.85;;;3.55;;
14665;SDS011;7420;53.574;10.040;2023-04-27T02:27:35;7.25;;;3.70;;
14665;SDS011;7420;53.574;10.040;2023-04-27T02:30:04;6.82;;;3.85;;
14665;SDS011;7420;53.574;10.040;2023-04-27T02:32:34;5.63;;;3.30;;
14665;SDS011;7420;53.574;10.040;2023-04-27T02:35:00;6.40;;;3.63;;
14665;SDS011;7420;53.574;10.040;2023-04-27T02:37:26;11.18;;;4.32;;
14665;SDS011;7420;53.574;10.040;2023-04-27T02:39:51;6.03;;;3.65;;
14665;SDS011;7420;53.574;10.040;2023-04-27T02:42:17;12.13;;;4.68;;
14665;SDS011;7420;53.574;10.040;2023-04-27T02:44:42;6.40;;;3.72;;
14665;SDS011;7420;53.574;10.040;2023-04-27T02:47:08;6.03;;;3.22;;
14665;SDS011;7420;53.574;10.040;2023-04-27T02:49:33;8.65;;;3.83;;
14665;SDS011;7420;53.574;10.040;2023-04-27T02:51:59;8.63;;;3.58;;
14665;SDS011;7420;53.574;10.040;2023-04-27T02:54:24;7.25;;;3.72;;
14665;SDS011;7420;53.574;10.040;2023-04-27T02:56:50;6.57;;;3.83;;
14665;SDS011;7420;53.574;10.040;2023-04-27T02:59:16;6.10;;;3.35;;
14665;SDS011;7420;53.574;10.040;2023-04-27T03:01:41;6.00;;;4.35;;
14665;SDS011;7420;53.574;10.040;2023-04-27T03:04:06;5.60;;;3.50;;
14665;SDS011;7420;53.574;10.040;2023-04-27T03:06:32;9.15;;;4.05;;
14665;SDS011;7420;53.574;10.040;2023-04-27T03:08:57;6.88;;;4.07;;
14665;SDS011;7420;53.574;10.040;2023-04-27T03:11:23;5.40;;;3.47;;
14665;SDS011;7420;53.574;10.040;2023-04-27T03:13:48;7.18;;;3.80;;
14665;SDS011;7420;53.574;10.040;2023-04-27T03:16:13;5.82;;;3.30;;
14665;SDS011;7420;53.574;10.040;2023-04-27T03:18:39;6.70;;;4.82;;
14665;SDS011;7420;53.574;10.040;2023-04-27T03:21:05;9.23;;;4.40;;
14665;SDS011;7420;53.574;10.040;2023-04-27T03:23:34;5.03;;;3.47;;
14665;SDS011;7420;53.574;10.040;2023-04-27T03:26:04;7.57;;;3.55;;
14665;SDS011;7420;53.574;10.040;2023-04-27T03:28:39;4.95;;;3.40;;
14665;SDS011;7420;53.574;10.040;2023-04-27T03:31:08;6.03;;;3.13;;
14665;SDS011;7420;53.574;10.040;2023-04-27T03:33:35;5.38;;;2.90;;
14665;SDS011;7420;53.574;10.040;2023-04-27T03:36:00;6.72;;;3.10;;
14665;SDS011;7420;53.574;10.040;2023-04-27T03:38:26;9.30;;;2.95;;
14665;SDS011;7420;53.574;10.040;2023-04-27T03:40:52;7.13;;;3.05;;
14665;SDS011;7420;53.574;10.040;2023-04-27T03:43:18;6.90;;;3.30;;
14665;SDS011;7420;53.574;10.040;2023-04-27T03:45:45;8.00;;;3.38;;
14665;SDS011;7420;53.574;10.040;2023-04-27T03:48:10;6.93;;;3.25;;
14665;SDS011;7420;53.574;10.040;2023-04-27T03:50:35;6.45;;;3.50;;
14665;SDS011;7420;53.574;10.040;2023-04-27T03:53:01;6.70;;;3.45;;
14665;SDS011;7420;53.574;10.040;2023-04-27T03:55:26;5.90;;;3.55;;
14665;SDS011;7420;53.574;10.040;2023-04-27T03:57:52;9.95;;;4.50;;
14665;SDS011;7420;53.574;10.040;2023-04-27T04:00:17;11.35;;;4.82;;
14665;SDS011;7420;53.574;10.040;2023-04-27T04:02:43;7.35;;;4.78;;
14665;SDS011;7420;53.574;10.040;2023-04-27T04:05:09;11.20;;;4.70;;
14665;SDS011;7420;53.574;10.040;2023-04-27T04:07:36;10.50;;;3.88;;
14665;SDS011;7420;53.574;10.040;2023-04-27T04:10:01;7.47;;;4.75;;
14665;SDS011;7420;53.574;10.040;2023-04-27T04:12:27;6.35;;;4.20;;
14665;SDS011;7420;53.574;10.040;2023-04-27T04:14:54;9.60;;;4.65;;
14665;SDS011;7420;53.574;10.040;2023-04-27T04:17:19;8.77;;;4.88;;
14665;SDS011;7420;53.574;10.040;2023-04-27T04:19:45;10.57;;;4.38;;
14665;SDS011;7420;53.574;10.040;2023-04-27T04:22:10;7.10;;;4.78;;
14665;SDS011;7420;53.574;10.040;2023-04-27T04:24:36;8.73;;;4.78;;
14665;SDS011;7420;53.574;10.040;2023-04-27T04:27:01;8.02;;;5.05;;
14665;SDS011;7420;53.574;10.040;2023-04-27T04:29:27;11.50;;;5.38;;
14665;SDS011;7420;53.574;10.040;2023-04-27T04:31:54;9.45;;;4.32;;
14665;SDS011;7420;53.574;10.040;2023-04-27T04:34:20;6.82;;;4.32;;
14665;SDS011;7420;53.574;10.040;2023-04-27T04:36:46;6.47;;;4.20;;
14665;SDS011;7420;53.574;10.040;2023-04-27T04:39:11;7.43;;;4.85;;
14665;SDS011;7420;53.574;10.040;2023-04-27T04:41:37;10.20;;;5.00;;
14665;SDS011;7420;53.574;10.040;2023-04-27T04:44:02;12.80;;;5.10;;
14665;SDS011;7420;53.574;10.040;2023-04-27T04:46:29;7.35;;;4.20;;
14665;SDS011;7420;53.574;10.040;2023-04-27T04:48:54;11.13;;;5.00;;
14665;SDS011;7420;53.574;10.040;2023-04-27T04:51:20;10.13;;;4.15;;
14665;SDS011;7420;53.574;10.040;2023-04-27T04:53:45;7.00;;;4.60;;
14665;SDS011;7420;53.574;10.040;2023-04-27T04:56:11;8.32;;;5.05;;
14665;SDS011;7420;53.574;10.040;2023-04-27T04:58:37;7.32;;;4.45;;
14665;SDS011;7420;53.574;10.040;2023-04-27T05:01:03;10.77;;;4.63;;
14665;SDS011;7420;53.574;10.040;2023-04-27T05:03:29;7.55;;;4.20;;
14665;SDS011;7420;53.574;10.040;2023-04-27T05:05:54;12.52;;;4.80;;
14665;SDS011;7420;53.574;10.040;2023-04-27T05:08:19;9.52;;;5.88;;
14665;SDS011;7420;53.574;10.040;2023-04-27T05:10:49;8.43;;;4.80;;
14665;SDS011;7420;53.574;10.040;2023-04-27T05:13:15;6.90;;;4.25;;
14665;SDS011;7420;53.574;10.040;2023-04-27T05:15:41;11.27;;;5.20;;
14665;SDS011;7420;53.574;10.040;2023-04-27T05:18:06;7.40;;;4.63;;
14665;SDS011;7420;53.574;10.040;2023-04-27T05:20:35;10.00;;;4.38;;
14665;SDS011;7420;53.574;10.040;2023-04-27T05:23:00;7.32;;;4.20;;
14665;SDS011;7420;53.574;10.040;2023-04-27T05:25:28;8.10;;;5.03;;
14665;SDS011;7420;53.574;10.040;2023-04-27T05:27:55;8.52;;;4.47;;
14665;SDS011;7420;53.574;10.040;2023-04-27T05:30:20;9.27;;;5.78;;
14665;SDS011;7420;53.574;10.040;2023-04-27T05:32:46;9.52;;;4.43;;
14665;SDS011;7420;53.574;10.040;2023-04-27T05:35:11;8.13;;;4.30;;
14665;SDS011;7420;53.574;10.040;2023-04-27T05:37:37;11.70;;;5.00;;
14665;SDS011;7420;53.574;10.040;2023-04-27T05:40:02;9.25;;;4.82;;
14665;SDS011;7420;53.574;10.040;2023-04-27T05:42:29;11.07;;;4.75;;
14665;SDS011;7420;53.574;10.040;2023-04-27T05:44:55;9.10;;;5.00;;
14665;SDS011;7420;53.574;10.040;2023-04-27T05:47:20;9.98;;;5.80;;
14665;SDS011;7420;53.574;10.040;2023-04-27T05:49:49;7.63;;;4.50;;
14665;SDS011;7420;53.574;10.040;2023-04-27T05:52:16;6.15;;;4.30;;
14665;SDS011;7420;53.574;10.040;2023-04-27T05:54:48;12.07;;;5.00;;
14665;SDS011;7420;53.574;10.040;2023-04-27T05:57:15;7.68;;;4.50;;
14665;SDS011;7420;53.574;10.040;2023-04-27T05:59:40;8.93;;;5.20;;
14665;SDS011;7420;53.574;10.040;2023-04-27T06:02:06;10.95;;;5.18;;
14665;SDS011;7420;53.574;10.040;2023-04-27T06:04:32;8.25;;;4.50;;
14665;SDS011;7420;53.574;10.040;2023-04-27T06:06:58;11.60;;;4.88;;
14665;SDS011;7420;53.574;10.040;2023-04-27T06:09:24;9.68;;;4.88;;
14665;SDS011;7420;53.574;10.040;2023-04-27T06:11:49;10.95;;;4.55;;
14665;SDS011;7420;53.574;10.040;2023-04-27T06:14:15;8.60;;;4.90;;
14665;SDS011;7420;53.574;10.040;2023-04-27T06:16:40;8.00;;;4.50;;
14665;SDS011;7420;53.574;10.040;2023-04-27T06:19:06;11.90;;;4.32;;
14665;SDS011;7420;53.574;10.040;2023-04-27T06:21:32;9.85;;;5.10;;
14665;SDS011;7420;53.574;10.040;2023-04-27T06:23:58;10.32;;;4.78;;
14665;SDS011;7420;53.574;10.040;2023-04-27T06:26:24;11.57;;;4.90;;
14665;SDS011;7420;53.574;10.040;2023-04-27T06:28:49;9.32;;;4.38;;
14665;SDS011;7420;53.574;10.040;2023-04-27T06:31:15;13.35;;;4.50;;
14665;SDS011;7420;53.574;10.040;2023-04-27T06:33:40;9.45;;;4.28;;
14665;SDS011;7420;53.574;10.040;2023-04-27T06:36:06;5.72;;;3.03;;
14665;SDS011;7420;53.574;10.040;2023-04-27T06:38:32;7.90;;;5.32;;
14665;SDS011;7420;53.574;10.040;2023-04-27T06:40:57;6.38;;;4.32;;
14665;SDS011;7420;53.574;10.040;2023-04-27T06:43:23;5.65;;;3.33;;
14665;SDS011;7420;53.574;10.040;2023-04-27T06:45:48;14.55;;;4.63;;
14665;SDS011;7420;53.574;10.040;2023-04-27T06:48:14;6.78;;;3.60;;
14665;SDS011;7420;53.574;10.040;2023-04-27T06:50:39;10.70;;;4.28;;
14665;SDS011;7420;53.574;10.040;2023-04-27T06:53:04;7.38;;;4.07;;
14665;SDS011;7420;53.574;10.040;2023-04-27T06:55:30;7.90;;;4.05;;
14665;SDS011;7420;53.574;10.040;2023-04-27T06:57:55;10.20;;;4.43;;
14665;SDS011;7420;53.574;10.040;2023-04-27T07:00:20;10.50;;;4.35;;
14665;SDS011;7420;53.574;10.040;2023-04-27T07:02:46;11.95;;;4.30;;
14665;SDS011;7420;53.574;10.040;2023-04-27T07:05:12;10.20;;;4.53;;
14665;SDS011;7420;53.574;10.040;2023-04-27T07:07:37;13.93;;;5.18;;
14665;SDS011;7420;53.574;10.040;2023-04-27T07:10:02;7.70;;;4.00;;
14665;SDS011;7420;53.574;10.040;2023-04-27T07:12:28;6.57;;;4.53;;
14665;SDS011;7420;53.574;10.040;2023-04-27T07:14:54;17.77;;;5.07;;
14665;SDS011;7420;53.574;10.040;2023-04-27T07:17:19;5.18;;;3.47;;
14665;SDS011;7420;53.574;10.040;2023-04-27T07:19:45;8.27;;;4.82;;
14665;SDS011;7420;53.574;10.040;2023-04-27T07:22:10;7.40;;;4.22;;
14665;SDS011;7420;53.574;10.040;2023-04-27T07:24:36;7.80;;;4.55;;
14665;SDS011;7420;53.574;10.040;2023-04-27T07:27:01;8.93;;;3.60;;
14665;SDS011;7420;53.574;10.040;2023-04-27T07:29:28;10.40;;;4.28;;
14665;SDS011;7420;53.574;10.040;2023-04-27T07:31:54;8.65;;;4.00;;
14665;SDS011;7420;53.574;10.040;2023-04-27T07:34:19;7.63;;;3.42;;
14665;SDS011;7420;53.574;10.040;2023-04-27T07:36:45;9.88;;;3.83;;
14665;SDS011;7420;53.574;10.040;2023-04-27T07:39:10;10.25;;;3.85;;
14665;SDS011;7420;53.574;10.040;2023-04-27T07:41:36;7.40;;;3.42;;
14665;SDS011;7420;53.574;10.040;2023-04-27T07:44:01;6.63;;;3.45;;
14665;SDS011;7420;53.574;10.040;2023-04-27T07:46:27;8.77;;;3.88;;
14665;SDS011;7420;53.574;10.040;2023-04-27T07:48:54;6.70;;;3.47;;
14665;SDS011;7420;53.574;10.040;2023-04-27T07:51:19;5.85;;;2.95;;
14665;SDS011;7420;53.574;10.040;2023-04-27T07:53:45;6.35;;;2.88;;
14665;SDS011;7420;53.574;10.040;2023-04-27T07:56:10;7.82;;;3.05;;
14665;SDS011;7420;53.574;10.040;2023-04-27T07:58:36;6.20;;;3.50;;
14665;SDS011;7420;53.574;10.040;2023-04-27T08:01:02;8.07;;;3.53;;
14665;SDS011;7420;53.574;10.040;2023-04-27T08:03:27;6.47;;;3.20;;
14665;SDS011;7420;53.574;10.040;2023-04-27T08:05:52;3.63;;;3.00;;
14665;SDS011;7420;53.574;10.040;2023-04-27T08:08:18;4.03;;;2.97;;
14665;SDS011;7420;53.574;10.040;2023-04-27T08:10:43;5.47;;;3.00;;
14665;SDS011;7420;53.574;10.040;2023-04-27T08:13:08;5.82;;;2.80;;
14665;SDS011;7420;53.574;10.040;2023-04-27T08:15:35;7.03;;;3.20;;
14665;SDS011;7420;53.574;10.040;2023-04-27T08:18:00;5.35;;;2.90;;
14665;SDS011;7420;53.574;10.040;2023-04-27T08:20:26;5.50;;;2.90;;
14665;SDS011;7420;53.574;10.040;2023-04-27T08:22:51;4.45;;;2.70;;
14665;SDS011;7420;53.574;10.040;2023-04-27T08:25:17;5.57;;;2.35;;
14665;SDS011;7420;53.574;10.040;2023-04-27T08:27:42;5.22;;;3.17;;
14665;SDS011;7420;53.574;10.040;2023-04-27T08:30:08;5.28;;;2.42;;
14665;SDS011;7420;53.574;10.040;2023-04-27T08:32:33;6.45;;;2.97;;
14665;SDS011;7420;53.574;10.040;2023-04-27T08:34:59;3.70;;;2.50;;
14665;SDS011;7420;53.574;10.040;2023-04-27T08:37:24;4.40;;;2.70;;
14665;SDS011;7420;53.574;10.040;2023-04-27T08:39:49;5.20;;;3.00;;
14665;SDS011;7420;53.574;10.040;2023-04-27T08:42:15;3.88;;;2.45;;
14665;SDS011;7420;53.574;10.040;2023-04-27T08:44:41;6.05;;;3.42;;
14665;SDS011;7420;53.574;10.040;2023-04-27T08:47:07;7.40;;;3.03;;
14665;SDS011;7420;53.574;10.040;2023-04-27T08:49:33;7.20;;;3.00;;
14665;SDS011;7420;53.574;10.040;2023-04-27T08:52:15;4.90;;;2.42;;
14665;SDS011;7420;53.574;10.040;2023-04-27T08:54:41;5.53;;;2.60;;
14665;SDS011;7420;53.574;10.040;2023-04-27T08:57:10;3.25;;;2.80;;
14665;SDS011;7420;53.574;10.040;2023-04-27T08:59:37;4.10;;;2.90;;
14665;SDS011;7420;53.574;10.040;2023-04-27T09:02:03;5.85;;;2.63;;
14665;SDS011;7420;53.574;10.040;2023-04-27T09:04:35;5.80;;;3.13;;
14665;SDS011;7420;53.574;10.040;2023-04-27T09:09:36;6.00;;;2.53;;
14665;SDS011;7420;53.574;10.040;2023-04-27T09:12:12;4.53;;;2.67;;
14665;SDS011;7420;53.574;10.040;2023-04-27T09:17:40;4.93;;;2.65;;
14665;SDS011;7420;53.574;10.040;2023-04-27T09:20:06;2.80;;;2.35;;
14665;SDS011;7420;53.574;10.040;2023-04-27T09:22:43;4.85;;;2.42;;
14665;SDS011;7420;53.574;10.040;2023-04-27T09:25:26;2.85;;;2.08;;
14665;SDS011;7420;53.574;10.040;2023-04-27T09:27:53;4.75;;;2.53;;
14665;SDS011;7420;53.574;10.040;2023-04-27T09:30:19;5.18;;;2.50;;
14665;SDS011;7420;53.574;10.040;2023-04-27T09:32:51;5.05;;;3.78;;
14665;SDS011;7420;53.574;10.040;2023-04-27T09:35:35;8.18;;;3.38;;
14665;SDS011;7420;53.574;10.040;2023-04-27T09:38:01;7.40;;;2.97;;
14665;SDS011;7420;53.574;10.040;2023-04-27T09:40:27;6.30;;;2.90;;
14665;SDS011;7420;53.574;10.040;2023-04-27T09:42:55;4.47;;;3.10;;
14665;SDS011;7420;53.574;10.040;2023-04-27T09:45:22;7.93;;;3.78;;
14665;SDS011;7420;53.574;10.040;2023-04-27T09:47:48;6.35;;;3.10;;
14665;SDS011;7420;53.574;10.040;2023-04-27T09:50:14;5.13;;;2.17;;
14665;SDS011;7420;53.574;10.040;2023-04-27T09:52:40;5.68;;;3.22;;
14665;SDS011;7420;53.574;10.040;2023-04-27T09:55:07;4.30;;;2.92;;
14665;SDS011;7420;53.574;10.040;2023-04-27T09:57:39;5.38;;;2.80;;
14665;SDS011;7420;53.574;10.040;2023-04-27T10:00:17;5.20;;;2.40;;
14665;SDS011;7420;53.574;10.040;2023-04-27T10:03:13;7.25;;;3.10;;
14665;SDS011;7420;53.574;10.040;2023-04-27T10:08:40;4.50;;;2.40;;
14665;SDS011;7420;53.574;10.040;2023-04-27T10:11:15;2.85;;;2.38;;
14665;SDS011;7420;53.574;10.040;2023-04-27T10:13:52;4.30;;;2.80;;
14665;SDS011;7420;53.574;10.040;2023-04-27T10:16:19;4.85;;;2.55;;
14665;SDS011;7420;53.574;10.040;2023-04-27T10:18:52;5.32;;;3.05;;
14665;SDS011;7420;53.574;10.040;2023-04-27T10:21:19;5.15;;;2.72;;
14665;SDS011;7420;53.574;10.040;2023-04-27T10:23:53;5.75;;;3.30;;
14665;SDS011;7420;53.574;10.040;2023-04-27T10:26:25;4.10;;;3.00;;
14665;SDS011;7420;53.574;10.040;2023-04-27T10:29:03;2.42;;;2.20;;
14665;SDS011;7420;53.574;10.040;2023-04-27T10:31:31;4.28;;;2.88;;
14665;SDS011;7420;53.574;10.040;2023-04-27T10:34:07;2.80;;;2.50;;
14665;SDS011;7420;53.574;10.040;2023-04-27T10:36:34;6.22;;;2.75;;
14665;SDS011;7420;53.574;10.040;2023-04-27T10:39:13;4.68;;;2.90;;
14665;SDS011;7420;53.574;10.040;2023-04-27T10:42:00;3.63;;;2.45;;
14665;SDS011;7420;53.574;10.040;2023-04-27T10:44:26;4.47;;;3.13;;
14665;SDS011;7420;53.574;10.040;2023-04-27T10:46:53;5.85;;;3.25;;
14665;SDS011;7420;53.574;10.040;2023-04-27T10:49:20;4.53;;;2.97;;
14665;SDS011;7420;53.574;10.040;2023-04-27T10:51:47;3.15;;;2.67;;
14665;SDS011;7420;53.574;10.040;2023-04-27T10:54:14;3.08;;;2.50;;
14665;SDS011;7420;53.574;10.040;2023-04-27T10:56:40;5.25;;;2.72;;
14665;SDS011;7420;53.574;10.040;2023-04-27T10:59:05;5.50;;;2.67;;
14665;SDS011;7420;53.574;10.040;2023-04-27T11:01:32;5.25;;;2.58;;
14665;SDS011;7420;53.574;10.040;2023-04-27T11:03:58;4.68;;;2.80;;
14665;SDS011;7420;53.574;10.040;2023-04-27T11:06:25;4.47;;;2.97;;
14665;SDS011;7420;53.574;10.040;2023-04-27T11:08:52;3.90;;;2.83;;
14665;SDS011;7420;53.574;10.040;2023-04-27T11:11:18;4.70;;;3.40;;
14665;SDS011;7420;53.574;10.040;2023-04-27T11:13:46;4.85;;;2.80;;
14665;SDS011;7420;53.574;10.040;2023-04-27T11:16:12;3.75;;;2.92;;
14665;SDS011;7420;53.574;10.040;2023-04-27T11:18:40;3.80;;;3.08;;
14665;SDS011;7420;53.574;10.040;2023-04-27T11:21:07;6.93;;;3.50;;
14665;SDS011;7420;53.574;10.040;2023-04-27T11:23:34;5.18;;;3.75;;
14665;SDS011;7420;53.574;10.040;2023-04-27T11:31:01;7.03;;;3.67;;
14665;SDS011;7420;53.574;10.040;2023-04-27T11:33:28;7.05;;;4.32;;
14665;SDS011;7420;53.574;10.040;2023-04-27T11:35:54;7.00;;;4.22;;
14665;SDS011;7420;53.574;10.040;2023-04-27T11:38:20;5.38;;;3.53;;
14665;SDS011;7420;53.574;10.040;2023-04-27T11:40:46;5.20;;;3.60;;
14665;SDS011;7420;53.574;10.040;2023-04-27T11:43:24;7.28;;;3.35;;
14665;SDS011;7420;53.574;10.040;2023-04-27T11:45:50;3.47;;;2.47;;
14665;SDS011;7420;53.574;10.040;2023-04-27T11:48:15;5.15;;;3.47;;
14665;SDS011;7420;53.574;10.040;2023-04-27T11:50:45;8.73;;;3.42;;
14665;SDS011;7420;53.574;10.040;2023-04-27T11:53:12;4.43;;;3.28;;
14665;SDS011;7420;53.574;10.040;2023-04-27T11:55:37;7.88;;;3.78;;
14665;SDS011;7420;53.574;10.040;2023-04-27T11:58:05;12.65;;;4.07;;
14665;SDS011;7420;53.574;10.040;2023-04-27T12:00:31;5.97;;;3.20;;
14665;SDS011;7420;53.574;10.040;2023-04-27T12:02:57;6.22;;;4.05;;
14665;SDS011;7420;53.574;10.040;2023-04-27T12:05:22;5.85;;;3.55;;
14665;SDS011;7420;53.574;10.040;2023-04-27T12:07:48;4.18;;;2.90;;
14665;SDS011;7420;53.574;10.040;2023-04-27T12:10:13;4.85;;;3.30;;
14665;SDS011;7420;53.574;10.040;2023-04-27T12:12:39;9.52;;;4.18;;
14665;SDS011;7420;53.574;10.040;2023-04-27T12:15:04;7.43;;;3.42;;
14665;SDS011;7420;53.574;10.040;2023-04-27T12:17:32;5.18;;;3.40;;
14665;SDS011;7420;53.574;10.040;2023-04-27T12:19:57;4.75;;;3.30;;
14665;SDS011;7420;53.574;10.040;2023-04-27T12:22:23;6.18;;;4.00;;
14665;SDS011;7420;53.574;10.040;2023-04-27T12:24:49;5.80;;;3.47;;
14665;SDS011;7420;53.574;10.040;2023-04-27T12:27:15;4.65;;;3.40;;
14665;SDS011;7420;53.574;10.040;2023-04-27T12:29:40;6.60;;;3.30;;
14665;SDS011;7420;53.574;10.040;2023-04-27T12:32:06;3.38;;;2.78;;
14665;SDS011;7420;53.574;10.040;2023-04-27T12:34:32;3.95;;;3.53;;
14665;SDS011;7420;53.574;10.040;2023-04-27T12:36:57;5.38;;;3.25;;
14665;SDS011;7420;53.574;10.040;2023-04-27T12:39:23;6.63;;;3.33;;
14665;SDS011;7420;53.574;10.040;2023-04-27T12:41:51;6.68;;;3.42;;
14665;SDS011;7420;53.574;10.040;2023-04-27T12:44:17;5.03;;;2.97;;
14665;SDS011;7420;53.574;10.040;2023-04-27T12:46:44;3.53;;;3.08;;
14665;SDS011;7420;53.574;10.040;2023-04-27T12:49:10;4.20;;;2.97;;
14665;SDS011;7420;53.574;10.040;2023-04-27T12:51:36;6.35;;;3.60;;
14665;SDS011;7420;53.574;10.040;2023-04-27T12:54:02;5.55;;;3.13;;
14665;SDS011;7420;53.574;10.040;2023-04-27T12:56:28;5.97;;;4.32;;
14665;SDS011;7420;53.574;10.040;2023-04-27T12:58:54;6.03;;;3.20;;
14665;SDS011;7420;53.574;10.040;2023-04-27T13:01:19;7.45;;;3.42;;
14665;SDS011;7420;53.574;10.040;2023-04-27T13:03:49;5.85;;;3.58;;
14665;SDS011;7420;53.574;10.040;2023-04-27T13:06:15;5.20;;;3.22;;
14665;SDS011;7420;53.574;10.040;2023-04-27T13:08:41;7.40;;;4.13;;
14665;SDS011;7420;53.574;10.040;2023-04-27T13:11:07;7.72;;;3.70;;
14665;SDS011;7420;53.574;10.040;2023-04-27T13:13:32;3.92;;;3.20;;
14665;SDS011;7420;53.574;10.040;2023-04-27T13:15:57;6.68;;;3.60;;
14665;SDS011;7420;53.574;10.040;2023-04-27T13:18:23;9.27;;;4.35;;
14665;SDS011;7420;53.574;10.040;2023-04-27T13:20:49;6.55;;;4.07;;
14665;SDS011;7420;53.574;10.040;2023-04-27T13:23:15;6.63;;;4.95;;
14665;SDS011;7420;53.574;10.040;2023-04-27T13:25:41;7.25;;;4.03;;
14665;SDS011;7420;53.574;10.040;2023-04-27T13:28:06;6.57;;;3.92;;
14665;SDS011;7420;53.574;10.040;2023-04-27T13:30:31;6.72;;;3.85;;
14665;SDS011;7420;53.574;10.040;2023-04-27T13:32:57;6.45;;;4.57;;
14665;SDS011;7420;53.574;10.040;2023-04-27T13:35:22;4.95;;;4.45;;
14665;SDS011;7420;53.574;10.040;2023-04-27T13:37:49;5.55;;;4.57;;
14665;SDS011;7420;53.574;10.040;2023-04-27T13:40:15;5.28;;;4.28;;
14665;SDS011;7420;53.574;10.040;2023-04-27T13:42:41;6.85;;;4.63;;
14665;SDS011;7420;53.574;10.040;2023-04-27T13:45:06;7.28;;;4.88;;
14665;SDS011;7420;53.574;10.040;2023-04-27T13:47:32;5.78;;;4.90;;
14665;SDS011;7420;53.574;10.040;2023-04-27T13:50:02;6.70;;;4.88;;
14665;SDS011;7420;53.574;10.040;2023-04-27T13:52:28;9.00;;;4.90;;
14665;SDS011;7420;53.574;10.040;2023-04-27T13:54:54;6.53;;;4.20;;
14665;SDS011;7420;53.574;10.040;2023-04-27T13:57:22;7.80;;;4.70;;
14665;SDS011;7420;53.574;10.040;2023-04-27T13:59:48;7.75;;;4.47;;
14665;SDS011;7420;53.574;10.040;2023-04-27T14:02:13;6.40;;;4.63;;
14665;SDS011;7420;53.574;10.040;2023-04-27T14:04:38;8.48;;;4.50;;
14665;SDS011;7420;53.574;10.040;2023-04-27T14:07:04;5.70;;;4.20;;
14665;SDS011;7420;53.574;10.040;2023-04-27T14:09:29;6.07;;;3.88;;
14665;SDS011;7420;53.574;10.040;2023-04-27T14:11:55;6.32;;;4.80;;
14665;SDS011;7420;53.574;10.040;2023-04-27T14:14:21;7.53;;;4.40;;
14665;SDS011;7420;53.574;10.040;2023-04-27T14:16:47;6.07;;;3.65;;
14665;SDS011;7420;53.574;10.040;2023-04-27T14:19:12;6.85;;;3.70;;
14665;SDS011;7420;53.574;10.040;2023-04-27T14:21:40;7.60;;;4.15;;
14665;SDS011;7420;53.574;10.040;2023-04-27T14:24:06;4.80;;;3.53;;
14665;SDS011;7420;53.574;10.040;2023-04-27T14:26:31;6.43;;;4.13;;
14665;SDS011;7420;53.574;10.040;2023-04-27T14:28:57;8.27;;;3.90;;
14665;SDS011;7420;53.574;10.040;2023-04-27T14:31:22;8.90;;;4.18;;
14665;SDS011;7420;53.574;10.040;2023-04-27T14:33:48;5.72;;;3.70;;
14665;SDS011;7420;53.574;10.040;2023-04-27T14:36:14;5.97;;;3.78;;
14665;SDS011;7420;53.574;10.040;2023-04-27T14:38:42;5.97;;;3.75;;
14665;SDS011;7420;53.574;10.040;2023-04-27T14:41:08;5.60;;;4.20;;
14665;SDS011;7420;53.574;10.040;2023-04-27T14:43:33;11.07;;;5.22;;
14665;SDS011;7420;53.574;10.040;2023-04-27T14:45:59;8.90;;;3.70;;
14665;SDS011;7420;53.574;10.040;2023-04-27T14:48:25;6.88;;;4.22;;
14665;SDS011;7420;53.574;10.040;2023-04-27T14:50:51;4.63;;;3.25;;
14665;SDS011;7420;53.574;10.040;2023-04-27T14:53:16;5.68;;;3.75;;
14665;SDS011;7420;53.574;10.040;2023-04-27T14:55:42;8.55;;;3.97;;